Time;durP1;ratioP1;P1;durP2;ratioP2;P2;SDS_P1;SDS_P2;PMS_P1;PMS_P2;Temp;Humidity;BMP_temperature;BMP_pressure;BME280_temperature;BME280_humidity;BME280_pressure;Samples;Min_cycle;Max_cycle;Signal;HPM_P1;HPM_P2
2022/07/20 00:01:31;;;;;;;14.87;4.23;;;25.50;50.50;;;;;;4978129;28;20196;-81
2022/07/20 00:03:57;;;;;;;10.57;4.43;;;25.50;50.20;;;;;;4993385;28;20959;-80
2022/07/20 00:06:23;;;;;;;15.17;4.93;;;25.50;50.40;;;;;;4977100;28;20665;-80
2022/07/20 00:11:33;;;;;;;4.97;4.00;;;25.40;50.70;;;;;;4996911;28;20219;-80
2022/07/20 00:14:03;;;;;;;13.20;4.33;;;25.30;51.50;;;;;;5011000;28;20511;-79
2022/07/20 00:16:31;;;;;;;6.20;4.17;;;25.20;52.20;;;;;;4993119;28;20634;-78
2022/07/20 00:18:57;;;;;;;7.53;4.43;;;25.10;52.70;;;;;;4992784;28;20432;-78
2022/07/20 00:21:23;;;;;;;9.57;4.50;;;24.90;53.10;;;;;;4993311;28;20808;-78
2022/07/20 00:23:48;;;;;;;6.70;3.93;;;24.90;53.30;;;;;;4993577;28;20420;-79
2022/07/20 00:26:14;;;;;;;17.73;4.43;;;24.90;52.80;;;;;;4994670;28;20468;-79
2022/07/20 00:28:40;;;;;;;8.47;4.30;;;24.90;52.50;;;;;;4994917;28;20256;-79
2022/07/20 00:31:06;;;;;;;6.73;3.80;;;24.90;52.40;;;;;;4994732;28;20557;-79
2022/07/20 00:33:31;;;;;;;6.27;3.77;;;25.00;52.50;;;;;;4995512;28;20512;-81
2022/07/20 00:35:57;;;;;;;6.90;4.60;;;24.90;53.90;;;;;;4995302;28;20181;-80
2022/07/20 00:38:23;;;;;;;8.27;4.43;;;24.70;53.70;;;;;;4978923;28;20704;-81
2022/07/20 00:40:49;;;;;;;8.90;4.60;;;24.70;54.30;;;;;;4980949;28;20255;-81
2022/07/20 00:43:15;;;;;;;7.40;4.10;;;24.90;53.40;;;;;;4998612;28;20181;-81
2022/07/20 00:45:41;;;;;;;7.23;4.30;;;24.90;53.60;;;;;;4998883;28;20428;-82
2022/07/20 00:48:06;;;;;;;6.40;3.70;;;24.90;54.30;;;;;;4982974;28;20224;-81
2022/07/20 00:50:32;;;;;;;23.80;5.33;;;24.70;55.50;;;;;;4982060;28;20235;-81
2022/07/20 00:53:00;;;;;;;6.53;4.67;;;24.70;55.90;;;;;;4979409;28;20281;-81
2022/07/20 00:55:25;;;;;;;5.53;4.27;;;24.60;56.20;;;;;;4993911;28;20673;-80
2022/07/20 00:57:51;;;;;;;8.53;4.23;;;24.50;56.90;;;;;;4977557;28;20475;-81
2022/07/20 01:00:17;;;;;;;6.53;4.17;;;24.40;56.80;;;;;;4993886;28;20283;-81
2022/07/20 01:02:43;;;;;;;4.53;3.90;;;24.40;57.50;;;;;;4994702;28;20646;-81
2022/07/20 01:05:15;;;;;;;4.47;3.20;;;24.30;57.20;;;;;;4977167;28;20196;-79
2022/07/20 01:07:45;;;;;;;7.00;4.60;;;24.30;56.90;;;;;;5012486;28;20205;-78
2022/07/20 01:10:13;;;;;;;5.73;4.00;;;24.20;57.70;;;;;;4994270;28;20435;-79
2022/07/20 01:12:42;;;;;;;11.20;3.77;;;24.20;58.10;;;;;;5012303;28;21248;-79
2022/07/20 01:15:08;;;;;;;7.07;4.10;;;24.20;58.30;;;;;;5012427;28;20578;-79
2022/07/20 01:17:34;;;;;;;8.70;4.00;;;24.30;57.50;;;;;;4977983;28;20539;-80
2022/07/20 01:19:59;;;;;;;17.37;4.97;;;24.40;57.30;;;;;;4994432;28;20697;-80
2022/07/20 01:22:25;;;;;;;4.60;3.37;;;24.40;57.30;;;;;;4994710;28;20181;-80
2022/07/20 01:24:51;;;;;;;6.10;4.13;;;24.30;57.60;;;;;;5012923;28;20188;-80
2022/07/20 01:27:16;;;;;;;8.23;4.57;;;24.40;57.60;;;;;;4979135;28;20231;-80
2022/07/20 01:29:42;;;;;;;5.13;4.03;;;24.40;58.20;;;;;;4978686;28;20203;-81
2022/07/20 01:32:07;;;;;;;8.57;4.30;;;24.30;57.60;;;;;;4994867;28;20215;-80
2022/07/20 01:34:33;;;;;;;6.27;3.57;;;24.30;57.70;;;;;;4992797;28;20698;-79
2022/07/20 01:37:00;;;;;;;4.93;3.47;;;24.20;57.70;;;;;;4991956;28;20204;-79
2022/07/20 01:39:26;;;;;;;4.83;3.70;;;24.10;58.10;;;;;;5009430;28;20343;-79
2022/07/20 01:41:54;;;;;;;10.10;3.77;;;24.10;58.90;;;;;;4992264;28;20514;-79
2022/07/20 01:44:23;;;;;;;9.20;3.70;;;24.00;59.10;;;;;;4992123;28;20552;-75
2022/07/20 01:46:50;;;;;;;18.43;3.67;;;23.90;60.00;;;;;;5009406;28;20475;-77
2022/07/20 01:49:17;;;;;;;8.90;3.93;;;23.90;59.20;;;;;;5009433;28;20799;-77
2022/07/20 01:51:43;;;;;;;5.47;3.60;;;23.80;59.90;;;;;;5009463;28;20423;-76
2022/07/20 01:54:09;;;;;;;10.83;3.63;;;23.90;59.50;;;;;;4991535;28;20570;-78
2022/07/20 01:56:35;;;;;;;7.63;3.30;;;23.90;59.80;;;;;;4991931;28;20806;-77
2022/07/20 01:59:00;;;;;;;8.13;3.57;;;23.80;60.70;;;;;;4992670;28;20437;-78
2022/07/20 02:01:26;;;;;;;9.20;3.43;;;23.80;60.40;;;;;;4993000;28;20185;-77
2022/07/20 02:03:52;;;;;;;5.90;3.63;;;23.80;60.40;;;;;;4993448;28;20607;-77
2022/07/20 02:06:17;;;;;;;6.80;3.77;;;23.70;61.20;;;;;;5010156;28;20552;-78
2022/07/20 02:08:43;;;;;;;4.57;3.80;;;23.60;62.10;;;;;;5010360;28;20191;-78
2022/07/20 02:11:09;;;;;;;5.13;3.40;;;23.60;61.60;;;;;;4995444;28;20191;-77
2022/07/20 02:13:36;;;;;;;10.60;3.70;;;23.50;62.80;;;;;;5014208;28;20184;-78
2022/07/20 02:16:14;;;;;;;6.67;4.30;;;23.50;63.60;;;;;;4996811;28;20188;-78
2022/07/20 02:18:41;;;;;;;4.17;3.60;;;23.40;64.50;;;;;;4999327;28;20511;-77
2022/07/20 02:21:07;;;;;;;5.60;3.57;;;23.30;64.40;;;;;;5015976;28;20419;-78
2022/07/20 02:23:33;;;;;;;3.20;2.60;;;23.30;64.90;;;;;;4987018;28;20431;-78
2022/07/20 02:25:59;;;;;;;3.70;3.37;;;23.30;65.80;;;;;;5002463;28;20426;-79
2022/07/20 02:28:24;;;;;;;6.47;3.10;;;23.20;65.90;;;;;;5002024;28;20294;-78
2022/07/20 02:30:50;;;;;;;10.03;3.50;;;23.20;66.40;;;;;;4986623;28;20197;-78
2022/07/20 02:33:16;;;;;;;8.80;3.47;;;23.20;66.70;;;;;;5003721;28;20191;-78
2022/07/20 02:35:41;;;;;;;5.73;3.57;;;23.20;67.00;;;;;;5002604;28;20602;-79
2022/07/20 02:38:07;;;;;;;4.90;3.20;;;23.20;66.30;;;;;;4998066;28;20681;-78
2022/07/20 02:40:33;;;;;;;8.73;3.40;;;23.20;66.20;;;;;;4995797;28;20199;-77
2022/07/20 02:42:58;;;;;;;4.97;3.03;;;23.30;67.40;;;;;;5013511;28;20203;-77
2022/07/20 02:45:24;;;;;;;3.60;3.10;;;23.20;67.00;;;;;;5013071;28;20188;-77
2022/07/20 02:47:50;;;;;;;3.37;2.90;;;23.20;68.30;;;;;;5012924;28;20227;-77
2022/07/20 02:50:16;;;;;;;10.10;3.73;;;23.20;68.70;;;;;;4994707;28;20274;-77
2022/07/20 02:52:42;;;;;;;3.67;3.00;;;23.20;68.00;;;;;;4995296;28;20444;-75
2022/07/20 02:55:10;;;;;;;4.27;3.00;;;23.20;69.60;;;;;;5012293;28;20243;-74
2022/07/20 02:57:36;;;;;;;6.50;3.60;;;23.20;70.00;;;;;;4994541;28;20488;-75
2022/07/20 03:00:05;;;;;;;10.13;3.70;;;23.10;71.30;;;;;;4994663;28;20521;-75
2022/07/20 03:02:31;;;;;;;7.40;3.20;;;23.00;71.80;;;;;;4994921;28;20535;-75
2022/07/20 03:04:56;;;;;;;4.87;3.53;;;23.00;71.90;;;;;;5012129;28;20417;-75
2022/07/20 03:07:22;;;;;;;12.23;4.20;;;22.90;73.30;;;;;;4994565;28;20211;-75
2022/07/20 03:09:47;;;;;;;4.93;3.03;;;22.80;74.30;;;;;;4994491;28;20192;-75
2022/07/20 03:12:13;;;;;;;6.50;3.53;;;22.60;75.90;;;;;;4994425;28;20277;-75
2022/07/20 03:14:39;;;;;;;7.40;4.30;;;22.50;78.20;;;;;;5012015;28;20219;-74
2022/07/20 03:17:04;;;;;;;5.80;3.97;;;22.40;79.10;;;;;;5012201;28;20569;-76
2022/07/20 03:19:30;;;;;;;6.60;4.13;;;22.20;82.40;;;;;;5012080;28;20217;-76
2022/07/20 03:21:55;;;;;;;7.33;4.13;;;22.00;84.50;;;;;;5011271;28;20208;-75
2022/07/20 03:24:21;;;;;;;7.43;3.73;;;21.90;83.30;;;;;;5012250;28;20637;-75
2022/07/20 03:26:46;;;;;;;15.97;5.13;;;21.90;84.20;;;;;;4995268;28;20220;-76
2022/07/20 03:29:12;;;;;;;5.30;3.63;;;21.90;83.70;;;;;;4995344;28;20197;-76
2022/07/20 03:31:38;;;;;;;8.77;5.30;;;21.80;85.00;;;;;;4997339;28;20194;-76
2022/07/20 03:34:03;;;;;;;6.80;4.97;;;21.70;85.70;;;;;;4998555;28;20266;-77
2022/07/20 03:36:29;;;;;;;10.63;5.63;;;21.60;85.30;;;;;;4980585;28;20671;-77
2022/07/20 03:38:54;;;;;;;7.93;6.03;;;21.50;85.40;;;;;;4982331;28;20663;-77
2022/07/20 03:41:20;;;;;;;5.43;4.90;;;21.50;86.30;;;;;;4998692;28;20171;-77
2022/07/20 03:43:46;;;;;;;9.90;5.40;;;21.40;89.10;;;;;;5012649;28;20726;-77
2022/07/20 03:46:11;;;;;;;8.57;4.60;;;21.30;90.50;;;;;;4996800;28;20178;-75
2022/07/20 03:48:37;;;;;;;5.77;4.80;;;21.20;91.00;;;;;;5010871;28;20211;-75
2022/07/20 03:51:03;;;;;;;8.10;5.07;;;21.10;91.40;;;;;;5010455;28;20180;-75
2022/07/20 03:53:29;;;;;;;6.37;5.20;;;21.00;92.20;;;;;;5010305;28;20480;-75
2022/07/20 03:55:55;;;;;;;7.33;4.70;;;20.90;93.00;;;;;;5010130;28;20504;-75
2022/07/20 03:58:20;;;;;;;7.50;5.10;;;20.80;93.60;;;;;;5010177;28;20208;-75
2022/07/20 04:00:46;;;;;;;10.80;6.13;;;20.80;94.10;;;;;;4992449;28;20189;-75
2022/07/20 04:03:12;;;;;;;7.00;5.17;;;20.70;94.00;;;;;;5009901;28;20260;-75
2022/07/20 04:05:37;;;;;;;7.20;5.47;;;20.70;95.00;;;;;;4992067;28;20929;-75
2022/07/20 04:08:03;;;;;;;8.50;5.93;;;20.60;94.70;;;;;;5009539;28;20220;-75
2022/07/20 04:10:29;;;;;;;7.57;5.53;;;20.50;95.30;;;;;;4992025;28;20196;-75
2022/07/20 04:12:55;;;;;;;9.67;5.17;;;20.50;96.20;;;;;;4991687;28;20944;-75
2022/07/20 04:15:20;;;;;;;6.30;4.90;;;20.50;97.10;;;;;;4991342;28;20750;-75
2022/07/20 04:17:46;;;;;;;7.90;5.03;;;20.40;97.20;;;;;;5009080;28;20716;-75
2022/07/20 04:20:12;;;;;;;9.13;5.23;;;20.20;97.80;;;;;;4991472;28;20185;-75
2022/07/20 04:22:37;;;;;;;11.40;6.10;;;20.40;98.00;;;;;;4991038;28;20188;-75
2022/07/20 04:25:03;;;;;;;5.47;4.70;;;20.50;98.60;;;;;;4991097;28;20193;-75
2022/07/20 04:27:29;;;;;;;6.93;5.13;;;20.50;98.40;;;;;;5008666;28;20364;-75
2022/07/20 04:29:55;;;;;;;9.57;5.13;;;20.50;99.90;;;;;;4991186;28;20420;-75
2022/07/20 04:32:20;;;;;;;10.03;5.13;;;20.50;99.90;;;;;;5008645;28;20181;-75
2022/07/20 04:34:46;;;;;;;6.23;4.43;;;20.50;99.90;;;;;;5008733;28;20237;-75
2022/07/20 04:37:12;;;;;;;13.27;5.33;;;20.50;99.90;;;;;;5008757;28;20561;-75
2022/07/20 04:39:38;;;;;;;10.50;4.70;;;20.60;99.90;;;;;;4990885;28;20223;-75
2022/07/20 04:42:04;;;;;;;12.60;5.57;;;20.50;99.90;;;;;;5008556;28;20844;-75
2022/07/20 04:44:29;;;;;;;7.60;4.57;;;20.50;99.90;;;;;;4990786;28;20481;-75
2022/07/20 04:46:55;;;;;;;6.63;5.00;;;20.60;99.90;;;;;;5008829;28;20444;-75
2022/07/20 04:49:21;;;;;;;13.57;4.60;;;20.60;99.90;;;;;;5008466;28;20189;-75
2022/07/20 04:51:46;;;;;;;12.03;4.43;;;20.70;99.90;;;;;;5008412;28;20207;-75
2022/07/20 04:54:12;;;;;;;10.43;4.80;;;20.80;99.90;;;;;;5008370;28;20217;-75
2022/07/20 04:56:38;;;;;;;7.60;5.13;;;20.90;99.90;;;;;;5008281;28;20255;-75
2022/07/20 04:59:04;;;;;;;5.20;4.70;;;20.90;99.90;;;;;;5008430;28;20181;-75
2022/07/20 05:01:30;;;;;;;6.23;4.20;;;21.00;99.90;;;;;;4990815;28;20181;-75
2022/07/20 05:03:56;;;;;;;16.80;5.07;;;21.10;99.90;;;;;;5008364;28;20424;-75
2022/07/20 05:06:22;;;;;;;6.47;4.23;;;21.20;99.90;;;;;;5008417;28;20885;-76
2022/07/20 05:08:48;;;;;;;5.87;4.17;;;21.20;99.90;;;;;;5008227;28;20462;-76
2022/07/20 05:11:13;;;;;;;9.93;4.63;;;21.20;99.90;;;;;;5008915;28;20179;-76
2022/07/20 05:13:39;;;;;;;13.37;3.77;;;21.30;99.90;;;;;;4990240;28;20189;-76
2022/07/20 05:16:06;;;;;;;19.63;4.83;;;21.30;99.90;;;;;;4990441;28;20565;-76
2022/07/20 05:18:32;;;;;;;13.90;4.13;;;21.40;99.90;;;;;;5008152;28;20495;-77
2022/07/20 05:20:58;;;;;;;9.43;4.40;;;21.50;99.90;;;;;;5008078;28;20866;-76
2022/07/20 05:23:24;;;;;;;8.93;4.90;;;21.60;99.90;;;;;;4990327;28;20718;-77
2022/07/20 05:25:49;;;;;;;10.10;5.13;;;21.70;99.90;;;;;;4990133;28;20195;-76
2022/07/20 05:28:20;;;;;;;9.57;4.33;;;21.80;99.90;;;;;;4973781;28;20233;-76
2022/07/20 05:30:47;;;;;;;6.40;4.10;;;21.90;99.90;;;;;;4990793;28;20187;-76
2022/07/20 05:33:13;;;;;;;5.40;4.00;;;22.00;99.90;;;;;;5007913;28;20842;-76
2022/07/20 05:35:38;;;;;;;8.43;4.13;;;22.10;99.90;;;;;;4990018;28;20991;-76
2022/07/20 05:38:04;;;;;;;10.53;4.63;;;22.40;99.90;;;;;;5007736;28;20452;-76
2022/07/20 05:40:30;;;;;;;9.03;4.33;;;22.60;99.90;;;;;;4989968;28;20207;-76
2022/07/20 05:42:55;;;;;;;14.23;4.80;;;22.70;99.60;;;;;;4990103;28;20274;-76
2022/07/20 05:45:21;;;;;;;7.40;4.50;;;22.70;99.60;;;;;;4989534;28;20191;-76
2022/07/20 05:47:46;;;;;;;7.80;4.43;;;22.70;99.00;;;;;;5007855;28;20214;-76
2022/07/20 05:50:12;;;;;;;6.20;4.60;;;22.70;99.40;;;;;;4989824;28;20197;-77
2022/07/20 05:52:38;;;;;;;10.20;4.73;;;22.80;98.90;;;;;;4989710;28;20228;-75
2022/07/20 05:55:05;;;;;;;10.00;4.33;;;23.00;99.40;;;;;;4989578;28;20211;-76
2022/07/20 05:57:30;;;;;;;9.20;4.43;;;23.10;98.60;;;;;;5007238;28;20974;-75
2022/07/20 05:59:56;;;;;;;6.17;4.77;;;23.40;98.40;;;;;;4989387;28;20439;-76
2022/07/20 06:02:22;;;;;;;11.40;4.67;;;23.50;98.30;;;;;;5007438;28;20188;-76
2022/07/20 06:04:47;;;;;;;10.90;4.80;;;23.50;97.90;;;;;;4989510;28;20200;-75
2022/07/20 06:07:13;;;;;;;5.93;4.87;;;23.60;97.10;;;;;;4989290;28;20237;-75
2022/07/20 06:09:38;;;;;;;10.23;4.47;;;23.60;96.40;;;;;;5007135;28;20670;-75
2022/07/20 06:12:04;;;;;;;10.63;4.60;;;23.70;96.50;;;;;;5007583;28;20187;-75
2022/07/20 06:14:30;;;;;;;8.93;4.47;;;23.80;97.50;;;;;;4973136;28;20749;-76
2022/07/20 06:16:56;;;;;;;8.47;4.90;;;24.00;97.80;;;;;;4972919;28;21021;-75
2022/07/20 06:19:21;;;;;;;7.67;5.23;;;24.10;95.40;;;;;;5007292;28;20294;-75
2022/07/20 06:21:47;;;;;;;7.47;4.60;;;24.20;95.80;;;;;;5007165;28;20920;-75
2022/07/20 06:24:14;;;;;;;7.43;4.43;;;24.20;96.50;;;;;;5007107;28;20184;-75
2022/07/20 06:26:40;;;;;;;8.13;4.30;;;24.30;95.50;;;;;;5007030;28;20200;-75
2022/07/20 06:29:05;;;;;;;11.63;4.57;;;24.40;95.10;;;;;;4989080;28;20437;-75
2022/07/20 06:31:31;;;;;;;10.50;4.60;;;24.50;94.70;;;;;;5006870;28;20203;-75
2022/07/20 06:33:56;;;;;;;6.63;4.60;;;24.70;94.10;;;;;;4972738;28;20203;-75
2022/07/20 06:36:22;;;;;;;8.33;5.00;;;24.70;94.30;;;;;;4989017;28;20747;-75
2022/07/20 06:38:48;;;;;;;10.73;4.90;;;24.80;93.60;;;;;;4988924;28;20593;-74
2022/07/20 06:41:13;;;;;;;14.60;4.47;;;24.80;94.50;;;;;;4989406;28;20215;-75
2022/07/20 06:43:39;;;;;;;7.57;5.00;;;24.70;94.60;;;;;;5007321;28;20681;-75
2022/07/20 06:46:05;;;;;;;10.43;4.40;;;24.80;96.00;;;;;;4973041;28;20573;-75
2022/07/20 06:48:31;;;;;;;10.03;4.43;;;24.80;96.90;;;;;;5006998;28;20214;-75
2022/07/20 06:50:56;;;;;;;7.10;4.73;;;24.90;96.60;;;;;;5007184;28;20428;-75
2022/07/20 06:53:23;;;;;;;8.10;5.73;;;24.90;94.90;;;;;;5007967;28;20188;-75
2022/07/20 06:55:48;;;;;;;8.03;5.40;;;25.00;96.30;;;;;;5007765;28;20212;-75
2022/07/20 06:58:14;;;;;;;8.57;4.70;;;25.00;96.10;;;;;;5010340;28;20471;-76
2022/07/20 07:00:40;;;;;;;8.63;4.63;;;25.00;96.20;;;;;;5010660;28;20209;-75
2022/07/20 07:03:05;;;;;;;9.40;4.60;;;25.10;97.00;;;;;;4992631;28;20556;-75
2022/07/20 07:05:31;;;;;;;7.77;5.40;;;25.30;96.40;;;;;;4992626;28;20236;-75
2022/07/20 07:07:57;;;;;;;8.60;4.43;;;25.40;95.40;;;;;;4992176;28;20204;-75
2022/07/20 07:10:24;;;;;;;8.93;4.90;;;25.50;95.40;;;;;;4992422;28;20181;-75
2022/07/20 07:12:50;;;;;;;5.10;4.40;;;25.60;96.90;;;;;;5010302;28;20193;-75
2022/07/20 07:15:15;;;;;;;6.30;5.13;;;25.70;96.10;;;;;;5010350;28;20867;-75
2022/07/20 07:17:41;;;;;;;16.20;5.70;;;25.70;95.90;;;;;;4992293;28;20204;-75
2022/07/20 07:20:07;;;;;;;7.27;4.63;;;25.70;94.60;;;;;;5010123;28;20603;-75
2022/07/20 07:22:34;;;;;;;8.10;4.47;;;25.60;94.40;;;;;;5009974;28;20268;-75
2022/07/20 07:25:00;;;;;;;6.70;4.70;;;25.70;95.40;;;;;;4992050;28;20450;-75
2022/07/20 07:27:26;;;;;;;8.10;5.30;;;25.70;95.50;;;;;;5010147;28;21012;-75
2022/07/20 07:29:51;;;;;;;5.80;5.13;;;25.80;95.30;;;;;;5010059;28;20432;-75
2022/07/20 07:32:17;;;;;;;13.13;5.10;;;25.80;95.00;;;;;;5010126;28;20579;-76
2022/07/20 07:34:43;;;;;;;7.10;4.70;;;25.80;95.10;;;;;;4975615;28;20721;-75
2022/07/20 07:37:08;;;;;;;8.43;4.90;;;25.90;95.60;;;;;;4992066;28;20209;-75
2022/07/20 07:39:34;;;;;;;7.00;4.97;;;25.90;95.40;;;;;;5009686;28;20197;-75
2022/07/20 07:42:00;;;;;;;9.57;4.77;;;26.00;95.50;;;;;;4975713;28;20614;-75
2022/07/20 07:44:25;;;;;;;8.33;5.67;;;26.00;94.60;;;;;;5009645;28;20678;-75
2022/07/20 07:46:51;;;;;;;7.13;5.40;;;26.10;94.50;;;;;;4991733;28;20582;-75
2022/07/20 07:49:17;;;;;;;5.20;4.70;;;26.30;94.60;;;;;;5010248;28;20250;-75
2022/07/20 07:51:42;;;;;;;6.27;5.00;;;26.40;95.20;;;;;;5010126;28;20622;-75
2022/07/20 07:54:08;;;;;;;19.63;6.67;;;26.40;94.50;;;;;;5009728;28;20260;-75
2022/07/20 07:56:35;;;;;;;13.13;5.77;;;26.60;94.40;;;;;;5010805;28;20205;-75
2022/07/20 07:59:01;;;;;;;5.80;4.53;;;26.60;94.80;;;;;;5011467;28;20192;-75
2022/07/20 08:01:26;;;;;;;5.20;4.70;;;26.70;94.30;;;;;;5011053;28;20447;-75
2022/07/20 08:03:52;;;;;;;6.50;4.70;;;26.70;94.50;;;;;;5010854;28;20921;-75
2022/07/20 08:06:17;;;;;;;6.97;4.10;;;26.80;93.00;;;;;;5011067;28;20193;-75
2022/07/20 08:08:43;;;;;;;7.40;5.20;;;26.80;93.50;;;;;;5011102;28;20184;-75
2022/07/20 08:11:09;;;;;;;10.13;5.00;;;26.90;92.80;;;;;;4993697;28;20204;-75
2022/07/20 08:13:34;;;;;;;8.47;5.00;;;27.00;93.10;;;;;;5010908;28;20272;-75
2022/07/20 08:16:00;;;;;;;6.70;4.90;;;27.20;92.90;;;;;;5009970;28;20714;-75
2022/07/20 08:18:26;;;;;;;9.40;4.47;;;27.30;92.60;;;;;;4992712;28;20229;-75
2022/07/20 08:20:52;;;;;;;5.33;4.83;;;27.40;91.80;;;;;;4992458;28;20549;-75
2022/07/20 08:23:17;;;;;;;15.40;5.20;;;27.50;92.60;;;;;;5010654;28;20182;-75
2022/07/20 08:25:43;;;;;;;7.23;4.63;;;27.60;92.00;;;;;;4993412;28;20195;-75
2022/07/20 08:28:15;;;;;;;7.60;4.43;;;27.70;93.10;;;;;;4993466;28;20216;-75
2022/07/20 08:30:44;;;;;;;8.53;4.67;;;27.80;91.50;;;;;;5010942;28;20533;-75
2022/07/20 08:33:10;;;;;;;7.70;4.97;;;27.90;92.10;;;;;;5010843;28;20519;-75
2022/07/20 08:35:37;;;;;;;12.43;4.83;;;28.00;91.10;;;;;;5013322;28;20869;-75
2022/07/20 08:38:04;;;;;;;7.77;4.60;;;28.10;90.60;;;;;;5010844;28;20436;-75
2022/07/20 08:40:30;;;;;;;5.40;4.20;;;28.30;90.10;;;;;;5010500;28;20490;-75
2022/07/20 08:42:56;;;;;;;8.03;4.40;;;28.50;88.90;;;;;;4992542;28;20756;-75
2022/07/20 08:45:22;;;;;;;8.27;5.13;;;28.70;90.60;;;;;;4991844;28;20519;-75
2022/07/20 08:47:49;;;;;;;5.87;5.10;;;28.80;84.40;;;;;;5009982;28;20470;-75
2022/07/20 08:50:21;;;;;;;8.97;5.20;;;29.00;84.40;;;;;;5009845;28;20435;-75
2022/07/20 08:52:46;;;;;;;6.30;5.43;;;29.20;82.30;;;;;;4991866;28;20430;-75
2022/07/20 08:55:12;;;;;;;10.23;5.50;;;29.40;79.70;;;;;;5009590;28;20471;-76
2022/07/20 08:57:38;;;;;;;9.20;5.50;;;29.60;77.10;;;;;;4991827;28;20689;-75
2022/07/20 09:00:04;;;;;;;9.77;5.70;;;29.80;75.90;;;;;;5008832;28;20284;-75
2022/07/20 09:02:52;;;;;;;10.40;5.30;;;30.00;74.30;;;;;;5009041;28;20179;-75
2022/07/20 09:05:20;;;;;;;6.77;4.70;;;30.10;73.10;;;;;;5008757;28;20420;-75
2022/07/20 09:07:48;;;;;;;8.13;5.77;;;30.30;70.70;;;;;;5008638;28;20474;-75
2022/07/20 09:10:20;;;;;;;7.73;4.53;;;30.50;70.20;;;;;;5008871;28;20799;-75
2022/07/20 09:13:12;;;;;;;8.33;5.70;;;30.70;70.70;;;;;;5008457;28;20464;-75
2022/07/20 09:15:54;;;;;;;5.60;4.63;;;30.90;66.90;;;;;;5008639;28;20983;-75
2022/07/20 09:18:27;;;;;;;7.10;4.90;;;31.20;65.40;;;;;;4991050;28;20448;-75
2022/07/20 09:21:02;;;;;;;5.57;5.00;;;31.30;67.00;;;;;;4990119;28;20420;-75
2022/07/20 09:23:33;;;;;;;5.57;5.13;;;31.50;65.40;;;;;;5008828;28;20459;-75
2022/07/20 09:26:07;;;;;;;5.80;5.10;;;31.70;65.10;;;;;;5008669;28;20416;-75
2022/07/20 09:28:45;;;;;;;6.10;4.90;;;31.90;63.90;;;;;;4975082;28;20462;-75
2022/07/20 09:31:33;;;;;;;5.40;4.90;;;32.00;61.10;;;;;;4990640;28;20427;-75
2022/07/20 09:34:07;;;;;;;10.43;5.37;;;32.10;66.00;;;;;;4991803;28;21330;-75
2022/07/20 09:36:38;;;;;;;8.00;4.63;;;32.30;61.10;;;;;;5008073;28;20411;-75
2022/07/20 09:39:19;;;;;;;18.57;5.10;;;32.40;60.80;;;;;;5008095;28;20446;-75
2022/07/20 09:41:51;;;;;;;8.50;4.57;;;32.60;58.80;;;;;;4974650;28;20926;-75
2022/07/20 09:44:22;;;;;;;5.67;5.07;;;32.70;58.90;;;;;;5008048;28;20821;-75
2022/07/20 09:46:48;;;;;;;9.33;4.70;;;32.80;59.60;;;;;;5008470;28;21134;-75
2022/07/20 09:49:14;;;;;;;9.13;4.43;;;33.00;56.60;;;;;;4990354;28;20609;-75
2022/07/20 09:51:42;;;;;;;5.73;4.87;;;33.10;56.70;;;;;;5008444;28;20564;-75
2022/07/20 09:54:14;;;;;;;6.50;4.43;;;33.30;59.00;;;;;;5008229;28;20248;-75
2022/07/20 09:56:46;;;;;;;5.20;4.70;;;33.40;53.40;;;;;;5008148;28;20596;-75
2022/07/20 09:59:13;;;;;;;6.40;4.57;;;33.50;50.50;;;;;;4990097;28;21020;-75
2022/07/20 10:01:45;;;;;;;6.23;4.67;;;33.50;51.10;;;;;;5008938;28;20925;-75
2022/07/20 10:04:12;;;;;;;6.90;4.30;;;33.70;52.10;;;;;;5007956;28;20428;-74
2022/07/20 10:06:42;;;;;;;7.87;4.30;;;33.80;51.90;;;;;;4990270;28;20448;-75
2022/07/20 10:09:09;;;;;;;7.53;4.30;;;34.00;52.40;;;;;;4990305;28;20447;-75
2022/07/20 10:11:35;;;;;;;7.00;4.20;;;34.10;51.90;;;;;;5008485;28;20448;-75
2022/07/20 10:14:03;;;;;;;6.73;4.80;;;34.20;51.20;;;;;;5008347;28;20443;-75
2022/07/20 10:17:05;;;;;;;8.23;4.40;;;34.30;51.60;;;;;;5009067;28;20419;-76
2022/07/20 10:19:46;;;;;;;7.53;4.93;;;34.40;50.10;;;;;;4912710;29;20982;-77
2022/07/20 10:22:12;;;;;;;7.87;4.67;;;34.60;49.30;;;;;;4974479;28;20430;-78
2022/07/20 10:24:39;;;;;;;7.60;4.23;;;34.70;47.80;;;;;;4996124;28;20560;-77
2022/07/20 10:27:07;;;;;;;7.17;4.50;;;34.70;46.40;;;;;;4996457;28;20443;-78
2022/07/20 10:29:37;;;;;;;5.20;4.70;;;34.70;47.10;;;;;;5017186;28;20416;-77
2022/07/20 10:32:23;;;;;;;5.07;4.60;;;34.70;46.00;;;;;;5002326;28;20823;-78
2022/07/20 10:34:50;;;;;;;5.80;4.10;;;34.80;46.80;;;;;;5003537;28;20472;-78
2022/07/20 10:37:25;;;;;;;5.90;4.60;;;34.90;47.50;;;;;;5021179;28;20443;-77
2022/07/20 10:40:12;;;;;;;5.20;4.67;;;34.90;48.00;;;;;;5000077;28;20864;-77
2022/07/20 10:42:48;;;;;;;7.10;4.63;;;34.90;46.60;;;;;;4996087;28;20933;-77
2022/07/20 10:45:16;;;;;;;5.73;4.43;;;35.00;47.40;;;;;;5004703;28;20428;-78
2022/07/20 10:47:45;;;;;;;8.20;4.40;;;35.00;47.40;;;;;;5022569;28;20519;-77
2022/07/20 10:50:17;;;;;;;5.20;4.40;;;35.10;48.50;;;;;;5007214;28;20547;-77
2022/07/20 10:52:43;;;;;;;13.40;4.97;;;35.30;46.80;;;;;;5006344;28;20510;-77
2022/07/20 10:55:37;;;;;;;10.00;5.03;;;35.40;47.70;;;;;;4977677;28;21027;-75
2022/07/20 10:58:25;;;;;;;6.03;4.60;;;35.50;47.50;;;;;;5010578;28;20196;-75
2022/07/20 11:00:54;;;;;;;7.07;4.83;;;35.50;47.20;;;;;;5010699;28;21008;-75
2022/07/20 11:03:27;;;;;;;5.20;4.47;;;35.50;47.90;;;;;;5010591;28;20416;-75
2022/07/20 11:06:12;;;;;;;6.27;4.40;;;35.60;48.00;;;;;;4976700;28;20442;-75
2022/07/20 11:08:40;;;;;;;6.20;4.33;;;35.60;47.00;;;;;;5010344;28;20446;-75
2022/07/20 11:11:12;;;;;;;11.43;4.90;;;35.70;47.50;;;;;;5010830;28;20412;-75
2022/07/20 11:13:38;;;;;;;7.50;4.73;;;35.70;47.20;;;;;;5011123;28;20420;-75
2022/07/20 11:16:04;;;;;;;7.50;4.60;;;35.80;47.10;;;;;;5011070;28;20467;-75
2022/07/20 11:18:31;;;;;;;6.17;4.87;;;35.70;44.80;;;;;;5011000;28;20577;-76
2022/07/20 11:21:04;;;;;;;5.60;5.10;;;35.80;44.80;;;;;;5011136;28;20447;-75
2022/07/20 11:23:44;;;;;;;9.27;5.17;;;35.80;44.90;;;;;;5011268;28;20427;-75
2022/07/20 11:26:12;;;;;;;6.27;4.20;;;35.90;44.10;;;;;;5010994;28;20415;-75
2022/07/20 11:28:44;;;;;;;6.93;4.93;;;35.90;43.70;;;;;;4993005;28;20466;-75
2022/07/20 11:31:10;;;;;;;11.80;4.23;;;35.90;44.70;;;;;;5010787;28;20976;-75
2022/07/20 11:33:37;;;;;;;6.07;5.50;;;35.90;46.30;;;;;;4992832;28;20430;-75
2022/07/20 11:36:09;;;;;;;4.30;4.00;;;35.90;46.90;;;;;;5010177;28;20307;-75
2022/07/20 11:38:39;;;;;;;7.33;5.37;;;36.00;46.60;;;;;;5010181;28;20537;-75
2022/07/20 11:41:07;;;;;;;9.03;4.60;;;36.10;46.90;;;;;;5010251;28;20415;-75
2022/07/20 11:43:33;;;;;;;6.00;4.63;;;36.00;47.20;;;;;;5009236;28;20419;-75
2022/07/20 11:46:12;;;;;;;10.17;5.10;;;36.00;45.60;;;;;;4992183;28;20428;-75
2022/07/20 11:48:39;;;;;;;5.10;4.20;;;36.00;45.60;;;;;;5010139;28;20208;-75
2022/07/20 11:51:06;;;;;;;8.13;4.50;;;36.10;44.10;;;;;;5010106;28;20415;-75
2022/07/20 11:53:35;;;;;;;6.13;4.13;;;36.00;44.20;;;;;;5010329;28;20427;-75
2022/07/20 11:56:03;;;;;;;7.20;5.10;;;36.10;43.40;;;;;;5010097;28;20471;-74
2022/07/20 11:58:36;;;;;;;7.47;4.43;;;36.10;45.40;;;;;;4993276;28;20484;-77
2022/07/20 12:01:05;;;;;;;9.60;4.60;;;36.20;46.20;;;;;;4993403;28;20494;-77
2022/07/20 12:03:34;;;;;;;10.23;4.60;;;36.10;45.90;;;;;;5010221;28;21081;-76
2022/07/20 12:06:12;;;;;;;4.60;4.30;;;36.20;44.90;;;;;;5010548;28;20807;-77
2022/07/20 12:08:39;;;;;;;5.90;4.50;;;36.20;45.10;;;;;;5010559;28;20443;-77
2022/07/20 12:11:06;;;;;;;7.43;4.73;;;36.30;43.50;;;;;;4993353;28;20848;-77
2022/07/20 12:13:48;;;;;;;8.80;4.90;;;36.40;45.50;;;;;;5009814;28;20416;-77
2022/07/20 12:16:14;;;;;;;4.60;4.20;;;36.20;43.10;;;;;;5009983;28;20927;-78
2022/07/20 12:18:51;;;;;;;10.13;4.73;;;36.30;45.30;;;;;;4992045;28;20942;-77
2022/07/20 12:21:27;;;;;;;4.43;4.03;;;36.30;44.90;;;;;;5009700;28;20412;-78
2022/07/20 12:23:54;;;;;;;5.13;4.73;;;36.40;43.50;;;;;;5009976;28;20470;-77
2022/07/20 12:26:28;;;;;;;9.50;5.03;;;36.40;43.60;;;;;;5009978;28;20412;-78
2022/07/20 12:28:56;;;;;;;6.67;4.67;;;36.30;43.50;;;;;;4975626;28;20477;-77
2022/07/20 12:31:26;;;;;;;7.10;4.70;;;36.30;43.30;;;;;;4991616;28;20456;-78
2022/07/20 12:34:13;;;;;;;4.90;4.43;;;36.20;43.20;;;;;;4991865;28;20428;-77
2022/07/20 12:36:43;;;;;;;7.80;4.60;;;36.30;43.40;;;;;;4975172;28;20462;-77
2022/07/20 12:39:12;;;;;;;6.13;4.60;;;36.30;43.00;;;;;;5009132;28;20447;-77
2022/07/20 12:41:39;;;;;;;9.17;4.20;;;36.40;42.60;;;;;;5009215;28;20470;-77
2022/07/20 12:44:25;;;;;;;5.80;3.90;;;36.30;42.80;;;;;;5009062;28;20931;-77
2022/07/20 12:46:55;;;;;;;9.70;4.80;;;36.40;41.20;;;;;;4990938;28;20879;-77
2022/07/20 12:49:23;;;;;;;7.70;4.73;;;36.00;41.40;;;;;;5009110;28;20408;-77
2022/07/20 12:51:50;;;;;;;5.60;4.30;;;35.90;41.80;;;;;;5009023;28;20416;-77